Time;durP1;ratioP1;P1;durP2;ratioP2;P2;SDS_P1;SDS_P2;PMS_P1;PMS_P2;Temp;Humidity;BMP_temperature;BMP_pressure;BME280_temperature;BME280_humidity;BME280_pressure;Samples;Min_cycle;Max_cycle;Signal;HPM_P1;HPM_P2
2023/05/22 00:02:44;;;;;;;8.90;4.75;;;;;;;;;;5100906;28;20397;-79
2023/05/22 00:05:33;;;;;;;12.48;4.95;;;;;;;;;;5116720;28;20043;-79
2023/05/22 00:08:18;;;;;;;7.60;4.30;;;;;;;;;;5118601;28;20096;-79
2023/05/22 00:11:13;;;;;;;12.93;4.53;;;;;;;;;;5119882;28;20048;-77
2023/05/22 00:13:58;;;;;;;6.38;4.40;;;;;;;;;;5118613;28;20048;-78
2023/05/22 00:16:47;;;;;;;7.50;4.85;;;;;;;;;;5119971;28;20036;-79
2023/05/22 00:19:32;;;;;;;7.32;4.63;;;;;;;;;;5120925;28;20052;-79
2023/05/22 00:22:17;;;;;;;6.55;4.28;;;;;;;;;;5120510;28;20047;-80
2023/05/22 00:25:04;;;;;;;10.27;5.55;;;;;;;;;;5119939;28;20409;-79
2023/05/22 00:27:49;;;;;;;7.15;4.80;;;;;;;;;;5121473;28;20040;-81
2023/05/22 00:30:45;;;;;;;7.57;4.47;;;;;;;;;;5117652;28;20393;-79
2023/05/22 00:33:30;;;;;;;11.23;5.28;;;;;;;;;;5115929;28;20040;-81
2023/05/22 00:36:17;;;;;;;7.32;5.28;;;;;;;;;;5106452;28;20040;-80
2023/05/22 00:39:03;;;;;;;8.60;5.00;;;;;;;;;;5104985;28;20477;-80
2023/05/22 00:41:48;;;;;;;9.27;5.35;;;;;;;;;;5103822;28;20044;-78
2023/05/22 00:44:34;;;;;;;11.15;5.40;;;;;;;;;;5113544;28;20044;-81
2023/05/22 00:47:20;;;;;;;7.30;5.20;;;;;;;;;;5105032;28;20035;-80
2023/05/22 00:50:06;;;;;;;9.13;5.72;;;;;;;;;;5104343;28;20083;-80
2023/05/22 00:52:51;;;;;;;7.05;5.25;;;;;;;;;;5113254;28;20055;-81
2023/05/22 00:55:37;;;;;;;10.32;5.32;;;;;;;;;;5104025;28;20048;-81
2023/05/22 00:58:25;;;;;;;11.30;5.20;;;;;;;;;;5112652;28;20036;-79
2023/05/22 01:01:10;;;;;;;11.35;5.30;;;;;;;;;;5104052;28;20485;-82
2023/05/22 01:03:56;;;;;;;5.43;4.30;;;;;;;;;;5112757;28;20047;-81
2023/05/22 01:06:41;;;;;;;6.78;4.50;;;;;;;;;;5103919;28;20043;-79
2023/05/22 01:09:28;;;;;;;8.18;4.90;;;;;;;;;;5113434;28;20401;-81
2023/05/22 01:12:29;;;;;;;6.28;4.50;;;;;;;;;;5100386;28;20035;-79
2023/05/22 01:15:34;;;;;;;11.23;4.45;;;;;;;;;;5104656;28;20044;-81
2023/05/22 01:18:29;;;;;;;7.13;4.70;;;;;;;;;;5112646;28;20693;-81
2023/05/22 01:21:37;;;;;;;9.45;4.88;;;;;;;;;;5113332;28;20559;-78
2023/05/22 01:24:41;;;;;;;9.57;5.22;;;;;;;;;;5112788;28;20036;-81
2023/05/22 01:27:59;;;;;;;6.93;5.13;;;;;;;;;;5104580;28;20047;-78
2023/05/22 01:30:52;;;;;;;12.38;5.40;;;;;;;;;;5104812;28;20036;-78
2023/05/22 01:33:44;;;;;;;12.75;5.78;;;;;;;;;;5112938;28;20047;-81
2023/05/22 01:36:36;;;;;;;9.52;5.53;;;;;;;;;;5112797;28;20031;-81
2023/05/22 01:39:23;;;;;;;9.65;5.68;;;;;;;;;;5104479;28;20059;-81
2023/05/22 01:42:09;;;;;;;8.77;5.47;;;;;;;;;;5104390;28;20040;-79
2023/05/22 01:44:54;;;;;;;13.65;5.35;;;;;;;;;;5103759;28;20043;-79
2023/05/22 01:47:40;;;;;;;6.53;4.82;;;;;;;;;;5104226;28;20040;-79
2023/05/22 01:50:25;;;;;;;6.75;4.85;;;;;;;;;;5112524;28;20039;-81
2023/05/22 01:53:33;;;;;;;12.60;5.45;;;;;;;;;;5103177;28;20043;-79
2023/05/22 01:56:29;;;;;;;8.88;4.95;;;;;;;;;;5096523;28;20067;-79
2023/05/22 01:59:24;;;;;;;6.68;5.03;;;;;;;;;;5103966;28;20043;-80
2023/05/22 02:02:13;;;;;;;8.50;5.65;;;;;;;;;;5103671;28;20039;-80
2023/05/22 02:05:00;;;;;;;7.43;5.30;;;;;;;;;;5103309;28;20412;-79
2023/05/22 02:07:48;;;;;;;11.68;5.70;;;;;;;;;;5112208;28;20055;-81
2023/05/22 02:10:37;;;;;;;8.43;5.15;;;;;;;;;;5102489;28;20052;-81
2023/05/22 02:13:23;;;;;;;10.25;5.18;;;;;;;;;;5111776;28;20044;-79
2023/05/22 02:16:08;;;;;;;11.18;5.60;;;;;;;;;;5102593;28;20043;-82
2023/05/22 02:19:06;;;;;;;9.30;5.70;;;;;;;;;;5102847;28;20047;-82
2023/05/22 02:21:52;;;;;;;10.20;5.10;;;;;;;;;;5102546;28;20035;-82
2023/05/22 02:24:45;;;;;;;10.13;5.82;;;;;;;;;;5102855;28;20047;-82
2023/05/22 02:27:32;;;;;;;9.35;5.72;;;;;;;;;;5101839;28;20063;-80
2023/05/22 02:30:18;;;;;;;10.88;5.90;;;;;;;;;;5110674;28;20051;-82
2023/05/22 02:33:08;;;;;;;8.57;5.60;;;;;;;;;;5103300;28;20047;-80
2023/05/22 02:35:53;;;;;;;9.60;5.43;;;;;;;;;;5103485;28;20493;-80
2023/05/22 02:38:39;;;;;;;9.88;5.55;;;;;;;;;;5102159;28;20040;-82
2023/05/22 02:41:24;;;;;;;12.35;5.28;;;;;;;;;;5103296;28;20052;-81
2023/05/22 02:44:09;;;;;;;8.95;5.22;;;;;;;;;;5103388;28;20043;-82
2023/05/22 02:46:54;;;;;;;9.13;5.10;;;;;;;;;;5102849;28;20481;-80
2023/05/22 02:49:40;;;;;;;9.60;5.75;;;;;;;;;;5102298;28;20051;-82
2023/05/22 02:52:27;;;;;;;9.77;5.00;;;;;;;;;;5112118;28;20056;-82
2023/05/22 02:55:12;;;;;;;9.45;6.65;;;;;;;;;;5103294;28;20416;-80
2023/05/22 02:57:57;;;;;;;9.20;5.90;;;;;;;;;;5103152;28;20040;-80
2023/05/22 03:00:44;;;;;;;10.13;5.97;;;;;;;;;;5096687;28;20036;-83
2023/05/22 03:03:30;;;;;;;8.65;5.22;;;;;;;;;;5103138;28;20039;-82
2023/05/22 03:06:16;;;;;;;7.78;5.35;;;;;;;;;;5117076;28;20047;-82
2023/05/22 03:09:03;;;;;;;11.38;5.97;;;;;;;;;;5117040;28;20040;-82
2023/05/22 03:11:48;;;;;;;13.05;7.38;;;;;;;;;;5117036;28;20048;-79
2023/05/22 03:14:34;;;;;;;14.77;7.00;;;;;;;;;;5108587;28;20043;-79
2023/05/22 03:17:19;;;;;;;13.93;8.13;;;;;;;;;;5107613;28;20052;-79
2023/05/22 03:20:06;;;;;;;14.25;7.95;;;;;;;;;;5108402;28;20044;-79
2023/05/22 03:22:51;;;;;;;16.85;8.27;;;;;;;;;;5107734;28;20769;-82
2023/05/22 03:25:37;;;;;;;14.80;7.13;;;;;;;;;;5108639;28;20040;-78
2023/05/22 03:28:22;;;;;;;9.07;5.57;;;;;;;;;;5108354;28;20040;-78
2023/05/22 03:31:08;;;;;;;11.55;5.70;;;;;;;;;;5107628;28;20040;-78
2023/05/22 03:34:06;;;;;;;8.88;5.38;;;;;;;;;;5107875;28;20048;-79
2023/05/22 03:36:52;;;;;;;12.25;5.55;;;;;;;;;;5107718;28;20036;-81
2023/05/22 03:39:38;;;;;;;11.13;6.00;;;;;;;;;;5116743;28;20048;-81
2023/05/22 03:42:35;;;;;;;10.60;4.75;;;;;;;;;;5108152;28;20040;-81
2023/05/22 03:45:21;;;;;;;7.88;4.78;;;;;;;;;;5107834;28;20043;-79
2023/05/22 03:48:06;;;;;;;7.93;5.30;;;;;;;;;;5107068;28;20420;-79
2023/05/22 03:50:51;;;;;;;7.65;4.97;;;;;;;;;;5107817;28;20043;-82
2023/05/22 03:53:36;;;;;;;7.43;5.22;;;;;;;;;;5116346;28;20043;-80
2023/05/22 03:56:22;;;;;;;11.13;5.18;;;;;;;;;;5107849;28;20043;-79
2023/05/22 03:59:08;;;;;;;9.80;5.63;;;;;;;;;;5107555;28;20051;-82
2023/05/22 04:01:53;;;;;;;12.50;6.50;;;;;;;;;;5107535;28;20044;-84
2023/05/22 04:04:39;;;;;;;9.45;5.90;;;;;;;;;;5116169;28;20110;-80
2023/05/22 04:07:24;;;;;;;10.93;5.80;;;;;;;;;;5115107;28;20686;-80
2023/05/22 04:10:10;;;;;;;7.38;5.43;;;;;;;;;;5116036;28;20047;-82
2023/05/22 04:12:55;;;;;;;11.18;5.80;;;;;;;;;;5115440;28;20048;-79
2023/05/22 04:15:44;;;;;;;7.43;5.43;;;;;;;;;;5106858;28;20048;-82
2023/05/22 04:18:32;;;;;;;12.35;5.78;;;;;;;;;;5115898;28;20043;-79
2023/05/22 04:21:17;;;;;;;8.15;5.60;;;;;;;;;;5107059;28;20036;-80
2023/05/22 04:24:08;;;;;;;10.82;6.00;;;;;;;;;;5115151;28;20039;-81
2023/05/22 04:26:54;;;;;;;10.50;6.30;;;;;;;;;;5115712;28;20040;-81
2023/05/22 04:29:40;;;;;;;7.80;5.65;;;;;;;;;;5106353;28;20086;-80
2023/05/22 04:32:28;;;;;;;7.53;5.97;;;;;;;;;;5107622;28;20404;-83
2023/05/22 04:35:17;;;;;;;10.60;5.85;;;;;;;;;;5100478;28;20421;-82
2023/05/22 04:38:05;;;;;;;12.30;6.18;;;;;;;;;;5100140;28;20047;-82
2023/05/22 04:40:51;;;;;;;11.40;6.80;;;;;;;;;;5115687;28;20392;-82
2023/05/22 04:43:37;;;;;;;9.43;5.97;;;;;;;;;;5106565;28;20043;-82
2023/05/22 04:46:23;;;;;;;12.27;5.60;;;;;;;;;;5115848;28;20031;-80
2023/05/22 04:49:08;;;;;;;12.90;7.10;;;;;;;;;;5106514;28;20047;-87
2023/05/22 04:51:56;;;;;;;15.38;6.70;;;;;;;;;;5114896;28;20044;-81
2023/05/22 04:54:43;;;;;;;11.02;6.00;;;;;;;;;;5106647;28;20489;-79
2023/05/22 04:57:28;;;;;;;8.10;5.88;;;;;;;;;;5106445;28;20043;-82
2023/05/22 05:00:15;;;;;;;10.73;5.90;;;;;;;;;;5105622;28;20047;-80
2023/05/22 05:03:06;;;;;;;9.23;5.60;;;;;;;;;;5106064;28;20044;-82
2023/05/22 05:05:52;;;;;;;12.05;5.20;;;;;;;;;;5114889;28;20090;-82
2023/05/22 05:08:37;;;;;;;11.90;5.38;;;;;;;;;;5106730;28;20040;-83
2023/05/22 05:11:22;;;;;;;7.68;5.05;;;;;;;;;;5103757;28;20047;-83
2023/05/22 05:14:07;;;;;;;11.43;5.35;;;;;;;;;;5106542;28;20048;-83
2023/05/22 05:16:53;;;;;;;8.65;5.20;;;;;;;;;;5115166;28;20044;-80
2023/05/22 05:19:39;;;;;;;9.38;5.82;;;;;;;;;;5113913;28;20476;-82
2023/05/22 05:22:24;;;;;;;258.67;174.00;;;;;;;;;;5106351;28;20055;-82
2023/05/22 05:25:09;;;;;;;16.73;10.88;;;;;;;;;;5105853;28;20043;-83
2023/05/22 05:27:55;;;;;;;6.57;4.28;;;;;;;;;;5105212;28;20039;-80
2023/05/22 05:30:42;;;;;;;26.27;13.52;;;;;;;;;;5105705;28;20044;-78
2023/05/22 05:33:50;;;;;;;7.75;4.00;;;;;;;;;;5113328;28;20515;-80
2023/05/22 05:36:48;;;;;;;177.60;107.70;;;;;;;;;;5113958;28;20035;-83
2023/05/22 05:39:35;;;;;;;5.65;4.10;;;;;;;;;;5102342;28;20035;-79
2023/05/22 05:42:22;;;;;;;8.13;4.25;;;;;;;;;;5104188;28;20048;-81
2023/05/22 05:45:08;;;;;;;8.50;6.03;;;;;;;;;;5103521;28;20039;-79
2023/05/22 05:47:53;;;;;;;8.63;4.60;;;;;;;;;;5104950;28;20044;-78
2023/05/22 05:50:39;;;;;;;7.65;4.53;;;;;;;;;;5106065;28;20047;-78
2023/05/22 05:53:24;;;;;;;7.22;4.28;;;;;;;;;;5105372;28;20055;-81
2023/05/22 05:56:16;;;;;;;7.63;4.38;;;;;;;;;;5104907;28;20488;-79
2023/05/22 05:59:03;;;;;;;7.32;4.35;;;;;;;;;;5088976;28;20035;-81
2023/05/22 06:01:48;;;;;;;12.73;7.25;;;;;;;;;;5110701;28;20437;-83
2023/05/22 06:04:41;;;;;;;6.93;4.53;;;;;;;;;;5102218;28;20043;-81
2023/05/22 06:07:27;;;;;;;7.63;4.30;;;;;;;;;;5102999;28;20047;-81
2023/05/22 06:10:13;;;;;;;10.88;4.78;;;;;;;;;;5102333;28;20044;-79
2023/05/22 06:13:08;;;;;;;11.85;4.90;;;;;;;;;;5096137;28;20051;-81
2023/05/22 06:15:54;;;;;;;6.47;4.68;;;;;;;;;;5103627;28;20048;-81
2023/05/22 06:18:40;;;;;;;6.05;4.05;;;;;;;;;;5103992;28;20047;-80
2023/05/22 06:21:25;;;;;;;9.52;4.13;;;;;;;;;;5103554;28;20047;-79
2023/05/22 06:24:10;;;;;;;12.98;4.53;;;;;;;;;;5103628;28;20044;-80
2023/05/22 06:26:57;;;;;;;7.78;4.00;;;;;;;;;;5103297;28;20039;-80
2023/05/22 06:29:42;;;;;;;8.65;3.97;;;;;;;;;;5102852;28;20039;-82
2023/05/22 06:32:27;;;;;;;9.40;4.75;;;;;;;;;;5088980;28;20047;-82
2023/05/22 06:35:12;;;;;;;11.95;4.45;;;;;;;;;;5103081;28;20044;-80
2023/05/22 06:37:59;;;;;;;9.75;4.65;;;;;;;;;;5102671;28;20040;-82
2023/05/22 06:40:44;;;;;;;8.70;4.65;;;;;;;;;;5105664;28;20043;-82
2023/05/22 06:43:37;;;;;;;15.73;4.75;;;;;;;;;;5093765;28;20048;-80
2023/05/22 06:46:30;;;;;;;11.40;4.80;;;;;;;;;;5117649;28;20055;-80
2023/05/22 06:49:20;;;;;;;8.52;4.72;;;;;;;;;;5116626;28;20405;-78
2023/05/22 06:52:10;;;;;;;8.23;4.63;;;;;;;;;;5109221;28;20489;-79
2023/05/22 06:55:03;;;;;;;10.48;5.28;;;;;;;;;;5108245;28;20036;-78
2023/05/22 06:57:48;;;;;;;7.75;4.72;;;;;;;;;;5107982;28;20047;-76
2023/05/22 07:00:35;;;;;;;7.72;4.85;;;;;;;;;;5107942;28;20396;-76
2023/05/22 07:03:26;;;;;;;5.80;4.63;;;;;;;;;;5107692;28;20040;-81
2023/05/22 07:06:37;;;;;;;9.18;4.22;;;;;;;;;;5123591;28;20043;-76
2023/05/22 07:09:24;;;;;;;10.07;4.90;;;;;;;;;;5108118;28;20043;-80
2023/05/22 07:12:09;;;;;;;11.68;4.35;;;;;;;;;;5097780;28;20044;-81
2023/05/22 07:14:56;;;;;;;13.52;5.35;;;;;;;;;;5101473;28;20048;-81
2023/05/22 07:17:43;;;;;;;9.30;4.20;;;;;;;;;;5101677;28;20474;-81
2023/05/22 07:20:30;;;;;;;15.23;4.40;;;;;;;;;;5102587;28;20497;-81
2023/05/22 07:23:30;;;;;;;8.65;3.75;;;;;;;;;;5101984;28;20044;-81
2023/05/22 07:26:15;;;;;;;5.68;3.95;;;;;;;;;;5102235;28;20040;-80
2023/05/22 07:29:08;;;;;;;7.07;3.60;;;;;;;;;;5101936;28;20489;-81
2023/05/22 07:31:54;;;;;;;8.93;4.35;;;;;;;;;;5102068;28;20485;-81
2023/05/22 07:34:43;;;;;;;8.60;3.80;;;;;;;;;;5101623;28;20039;-80
2023/05/22 07:37:28;;;;;;;8.23;3.72;;;;;;;;;;5100932;28;20486;-80
2023/05/22 07:40:13;;;;;;;12.10;7.03;;;;;;;;;;5095951;28;20040;-80
2023/05/22 07:42:59;;;;;;;11.15;4.00;;;;;;;;;;5095780;28;20048;-81
2023/05/22 07:45:44;;;;;;;13.93;5.90;;;;;;;;;;5096905;28;20045;-81
2023/05/22 07:48:33;;;;;;;9.43;3.75;;;;;;;;;;5101857;28;20051;-80
2023/05/22 07:51:19;;;;;;;5.93;3.85;;;;;;;;;;5101541;28;20044;-81
2023/05/22 07:54:09;;;;;;;7.95;4.22;;;;;;;;;;5101810;28;20048;-81
2023/05/22 07:57:01;;;;;;;7.15;4.10;;;;;;;;;;5101352;28;20398;-80
2023/05/22 07:59:49;;;;;;;6.65;3.80;;;;;;;;;;5101861;28;20048;-81
2023/05/22 08:02:35;;;;;;;8.18;3.88;;;;;;;;;;5095851;28;20044;-81
2023/05/22 08:05:20;;;;;;;7.13;4.05;;;;;;;;;;5095504;28;20099;-82
2023/05/22 08:08:06;;;;;;;5.95;4.03;;;;;;;;;;5095786;28;20040;-81
2023/05/22 08:10:52;;;;;;;6.05;3.97;;;;;;;;;;5096578;28;20052;-81
2023/05/22 08:13:37;;;;;;;7.35;3.80;;;;;;;;;;5115916;28;20048;-81
2023/05/22 08:16:23;;;;;;;7.30;4.10;;;;;;;;;;5116034;28;20051;-81
2023/05/22 08:19:09;;;;;;;4.97;3.25;;;;;;;;;;5116480;28;20035;-82
2023/05/22 08:21:56;;;;;;;6.95;3.88;;;;;;;;;;5116646;28;20040;-81
2023/05/22 08:24:42;;;;;;;5.75;3.60;;;;;;;;;;5116602;28;20048;-82
2023/05/22 08:27:27;;;;;;;7.05;3.75;;;;;;;;;;5116269;28;20102;-81
2023/05/22 08:30:13;;;;;;;7.85;3.95;;;;;;;;;;5116204;28;20044;-81
2023/05/22 08:32:58;;;;;;;5.95;3.53;;;;;;;;;;5116086;28;20044;-81
2023/05/22 08:35:44;;;;;;;8.25;3.13;;;;;;;;;;5115893;28;20044;-83
2023/05/22 08:38:29;;;;;;;6.03;3.53;;;;;;;;;;5107534;28;20036;-84
2023/05/22 08:41:15;;;;;;;5.53;3.50;;;;;;;;;;5116265;28;20048;-79
2023/05/22 08:44:01;;;;;;;5.43;3.80;;;;;;;;;;5115593;28;20047;-80
2023/05/22 08:46:47;;;;;;;6.78;3.28;;;;;;;;;;5115829;28;20040;-78
2023/05/22 08:49:32;;;;;;;9.90;3.60;;;;;;;;;;5115873;28;20040;-78
2023/05/22 08:52:21;;;;;;;6.35;3.13;;;;;;;;;;5116113;28;20039;-83
2023/05/22 08:55:07;;;;;;;6.60;2.72;;;;;;;;;;5115933;28;20047;-85
2023/05/22 08:57:55;;;;;;;5.78;3.00;;;;;;;;;;5115761;28;20389;-85
2023/05/22 09:00:40;;;;;;;5.22;3.25;;;;;;;;;;5115846;28;20039;-81
2023/05/22 09:03:31;;;;;;;5.32;3.10;;;;;;;;;;5114947;28;20047;-83
2023/05/22 09:06:17;;;;;;;5.00;3.20;;;;;;;;;;5115853;28;20481;-83
2023/05/22 09:09:02;;;;;;;3.90;3.05;;;;;;;;;;5115459;28;20031;-83
2023/05/22 09:11:48;;;;;;;5.95;3.03;;;;;;;;;;5114847;28;20039;-84
2023/05/22 09:14:39;;;;;;;3.83;2.78;;;;;;;;;;5115412;28;20043;-83
2023/05/22 09:17:25;;;;;;;7.93;3.50;;;;;;;;;;5115431;28;20036;-83
2023/05/22 09:20:14;;;;;;;7.57;3.60;;;;;;;;;;5107095;28;20044;-83
2023/05/22 09:23:01;;;;;;;7.70;3.47;;;;;;;;;;5115126;28;20467;-83
2023/05/22 09:25:46;;;;;;;7.32;3.42;;;;;;;;;;5115437;28;20035;-84
2023/05/22 09:28:36;;;;;;;8.88;2.97;;;;;;;;;;5115405;28;20048;-83
2023/05/22 09:31:22;;;;;;;6.85;3.42;;;;;;;;;;5115279;28;20028;-84
2023/05/22 09:34:12;;;;;;;9.82;3.45;;;;;;;;;;5114867;28;20039;-83
2023/05/22 09:37:02;;;;;;;4.00;3.40;;;;;;;;;;5115173;28;20047;-83
2023/05/22 09:39:50;;;;;;;6.75;3.47;;;;;;;;;;5114686;28;20039;-83
2023/05/22 09:42:35;;;;;;;6.55;3.60;;;;;;;;;;5115025;28;20039;-84
2023/05/22 09:45:25;;;;;;;5.75;3.65;;;;;;;;;;5114848;28;20039;-84
2023/05/22 09:48:11;;;;;;;5.68;3.58;;;;;;;;;;5114905;28;20481;-84
2023/05/22 09:50:58;;;;;;;6.07;3.83;;;;;;;;;;5114646;28;20404;-83
2023/05/22 09:53:47;;;;;;;17.42;10.68;;;;;;;;;;5114411;28;20043;-82
2023/05/22 09:56:35;;;;;;;7.03;3.47;;;;;;;;;;5114523;28;20044;-83
2023/05/22 09:59:25;;;;;;;7.22;3.50;;;;;;;;;;5091828;28;20485;-83
2023/05/22 10:02:12;;;;;;;18.90;13.95;;;;;;;;;;5114503;28;20036;-84
2023/05/22 10:04:58;;;;;;;9.80;4.97;;;;;;;;;;5114149;28;20044;-83
2023/05/22 10:07:55;;;;;;;6.00;3.10;;;;;;;;;;5105951;28;20040;-84
2023/05/22 10:10:42;;;;;;;3.60;2.42;;;;;;;;;;5114801;28;20035;-84
2023/05/22 10:13:28;;;;;;;6.50;2.67;;;;;;;;;;5073523;28;20462;-83
2023/05/22 10:16:15;;;;;;;5.28;2.83;;;;;;;;;;5073531;28;20045;-83
2023/05/22 10:19:00;;;;;;;4.88;2.85;;;;;;;;;;5072415;28;20048;-84
2023/05/22 10:21:48;;;;;;;4.07;2.50;;;;;;;;;;5073898;28;20052;-84
2023/05/22 10:24:33;;;;;;;4.20;2.85;;;;;;;;;;5078912;28;20044;-84
2023/05/22 10:27:18;;;;;;;7.07;2.78;;;;;;;;;;5073946;28;20040;-84
2023/05/22 10:30:33;;;;;;;8.10;3.15;;;;;;;;;;5073502;28;20049;-85
2023/05/22 10:34:00;;;;;;;5.72;2.63;;;;;;;;;;5079152;28;20033;-83
2023/05/22 10:37:11;;;;;;;3.60;2.33;;;;;;;;;;5073349;28;20048;-82
2023/05/22 10:40:13;;;;;;;3.97;2.72;;;;;;;;;;5073411;28;20393;-83
2023/05/22 10:43:01;;;;;;;3.15;2.50;;;;;;;;;;5079092;28;20389;-83
2023/05/22 10:45:46;;;;;;;7.60;4.82;;;;;;;;;;5073412;28;20041;-83
2023/05/22 10:48:40;;;;;;;5.22;3.08;;;;;;;;;;5073214;28;20124;-83
2023/05/22 10:51:26;;;;;;;5.73;2.93;;;;;;;;;;5073648;28;20048;-84
2023/05/22 10:54:11;;;;;;;4.45;3.05;;;;;;;;;;5073562;28;20064;-84
2023/05/22 10:57:17;;;;;;;5.40;3.90;;;;;;;;;;5073304;28;20045;-84
2023/05/22 11:00:10;;;;;;;8.88;3.30;;;;;;;;;;5073635;28;20044;-83
2023/05/22 11:03:04;;;;;;;5.33;3.30;;;;;;;;;;5073264;28;20045;-84
2023/05/22 11:05:53;;;;;;;10.55;7.07;;;;;;;;;;5073522;28;20048;-84
2023/05/22 11:08:38;;;;;;;9.75;2.70;;;;;;;;;;5073175;28;20494;-84
2023/05/22 11:11:25;;;;;;;6.15;2.90;;;;;;;;;;5084184;28;20043;-84
2023/05/22 11:14:14;;;;;;;4.95;3.55;;;;;;;;;;5113890;28;20389;-84
2023/05/22 11:17:01;;;;;;;4.70;3.28;;;;;;;;;;5113698;28;20393;-84
2023/05/22 11:20:21;;;;;;;4.50;2.97;;;;;;;;;;5098510;28;20048;-84
2023/05/22 11:23:09;;;;;;;6.10;2.50;;;;;;;;;;5105010;28;20047;-83
2023/05/22 11:25:55;;;;;;;5.32;3.03;;;;;;;;;;5115224;28;20365;-84
2023/05/22 11:28:40;;;;;;;4.93;2.63;;;;;;;;;;5117675;28;20035;-85
2023/05/22 11:31:26;;;;;;;3.30;2.45;;;;;;;;;;5117286;28;20039;-85
2023/05/22 11:34:11;;;;;;;6.03;2.63;;;;;;;;;;5117530;28;20044;-84
2023/05/22 11:37:00;;;;;;;5.53;2.88;;;;;;;;;;5117748;28;20043;-85
2023/05/22 11:39:56;;;;;;;6.95;4.07;;;;;;;;;;5117362;28;20048;-84
2023/05/22 11:42:41;;;;;;;106.28;43.53;;;;;;;;;;5117206;28;20480;-84
2023/05/22 11:45:27;;;;;;;10.65;3.70;;;;;;;;;;5116600;28;20040;-84
2023/05/22 11:48:12;;;;;;;17.65;9.10;;;;;;;;;;5117316;28;20039;-84
2023/05/22 11:50:58;;;;;;;4.78;2.95;;;;;;;;;;5116802;28;20047;-83
2023/05/22 11:53:43;;;;;;;4.63;2.55;;;;;;;;;;5117169;28;20052;-84
2023/05/22 11:56:29;;;;;;;7.00;4.30;;;;;;;;;;5116875;28;20039;-84
2023/05/22 11:59:15;;;;;;;4.13;2.65;;;;;;;;;;5116888;28;20047;-84
2023/05/22 12:02:00;;;;;;;3.92;2.60;;;;;;;;;;5117485;28;20043;-85
2023/05/22 12:04:46;;;;;;;3.25;2.10;;;;;;;;;;5116328;28;20036;-84
2023/05/22 12:07:31;;;;;;;4.20;2.47;;;;;;;;;;5116689;28;20044;-84
2023/05/22 12:10:17;;;;;;;5.65;2.60;;;;;;;;;;5116733;28;20048;-84
2023/05/22 12:13:03;;;;;;;7.55;2.13;;;;;;;;;;5116493;28;20051;-84
2023/05/22 12:15:49;;;;;;;6.68;2.45;;;;;;;;;;5101346;28;20047;-84
2023/05/22 12:18:35;;;;;;;7.18;2.60;;;;;;;;;;5093746;28;20035;-84
2023/05/22 12:21:21;;;;;;;4.82;2.35;;;;;;;;;;5116453;28;20070;-83
2023/05/22 12:24:07;;;;;;;4.15;2.50;;;;;;;;;;5116390;28;20420;-85
2023/05/22 12:26:52;;;;;;;5.80;2.30;;;;;;;;;;5116477;28;20047;-84
2023/05/22 12:29:45;;;;;;;4.40;3.35;;;;;;;;;;5107749;28;20051;-86
2023/05/22 12:32:30;;;;;;;9.63;3.53;;;;;;;;;;5093533;28;20043;-84
2023/05/22 12:35:17;;;;;;;20.25;7.63;;;;;;;;;;5116303;28;20048;-84
2023/05/22 12:38:03;;;;;;;7.68;4.28;;;;;;;;;;5115589;28;20484;-85
2023/05/22 12:40:50;;;;;;;5.65;2.42;;;;;;;;;;5124878;28;20043;-86
2023/05/22 12:43:35;;;;;;;7.70;5.00;;;;;;;;;;5124342;28;20031;-85
2023/05/22 12:46:20;;;;;;;7.30;2.75;;;;;;;;;;5116523;28;20480;-85
2023/05/22 12:49:06;;;;;;;4.75;2.97;;;;;;;;;;5124381;28;20043;-84
2023/05/22 12:51:51;;;;;;;3.22;2.50;;;;;;;;;;5115651;28;20051;-84
2023/05/22 12:54:37;;;;;;;4.75;3.00;;;;;;;;;;5124772;28;20047;-85
2023/05/22 12:57:23;;;;;;;6.70;3.92;;;;;;;;;;5124727;28;20044;-85
2023/05/22 13:00:09;;;;;;;5.72;3.33;;;;;;;;;;5104271;28;20048;-84
2023/05/22 13:02:54;;;;;;;7.55;2.42;;;;;;;;;;5115701;28;20044;-84
2023/05/22 13:05:40;;;;;;;9.68;3.40;;;;;;;;;;5115576;28;20035;-85
2023/05/22 13:08:25;;;;;;;6.55;4.20;;;;;;;;;;5106770;28;20396;-84
2023/05/22 13:11:11;;;;;;;4.28;2.58;;;;;;;;;;5105279;28;20473;-87
2023/05/22 13:13:56;;;;;;;4.68;2.47;;;;;;;;;;5098585;28;20043;-85
2023/05/22 13:17:14;;;;;;;4.72;2.88;;;;;;;;;;5098412;28;20131;-89
2023/05/22 13:20:37;;;;;;;6.10;2.67;;;;;;;;;;5104255;28;20488;-84
2023/05/22 13:23:27;;;;;;;4.30;2.60;;;;;;;;;;5079492;28;20047;-88
2023/05/22 13:26:16;;;;;;;10.43;2.53;;;;;;;;;;5112680;28;20043;-87
2023/05/22 13:29:01;;;;;;;4.38;2.58;;;;;;;;;;5113008;28;20047;-85
2023/05/22 13:31:46;;;;;;;7.57;2.65;;;;;;;;;;5112280;28;20044;-83
2023/05/22 13:34:34;;;;;;;3.83;2.50;;;;;;;;;;5112165;28;20051;-85
2023/05/22 13:37:18;;;;;;;10.93;4.00;;;;;;;;;;5113057;28;20044;-83
2023/05/22 13:40:05;;;;;;;8.85;3.03;;;;;;;;;;5111861;28;20476;-84
2023/05/22 13:42:51;;;;;;;4.18;2.50;;;;;;;;;;5112611;28;20389;-82
2023/05/22 13:45:36;;;;;;;4.30;2.70;;;;;;;;;;5113078;28;20039;-84
2023/05/22 13:48:22;;;;;;;5.93;2.63;;;;;;;;;;5112109;28;20047;-84
2023/05/22 13:51:07;;;;;;;3.88;2.60;;;;;;;;;;5112855;28;20043;-83
2023/05/22 13:53:52;;;;;;;3.63;2.40;;;;;;;;;;5112089;28;20244;-84
2023/05/22 13:56:38;;;;;;;3.88;2.70;;;;;;;;;;5112127;28;20043;-84
2023/05/22 13:59:23;;;;;;;4.60;2.70;;;;;;;;;;5112450;28;20047;-83
2023/05/22 14:02:08;;;;;;;4.00;2.47;;;;;;;;;;5112675;28;20047;-83
2023/05/22 14:04:53;;;;;;;3.63;2.67;;;;;;;;;;5111780;28;20048;-81
2023/05/22 14:07:39;;;;;;;7.63;2.20;;;;;;;;;;5111382;28;20040;-85
2023/05/22 14:10:25;;;;;;;3.78;2.42;;;;;;;;;;5111805;28;20773;-82
2023/05/22 14:13:10;;;;;;;4.47;2.60;;;;;;;;;;5111615;28;20047;-81
2023/05/22 14:15:56;;;;;;;4.50;2.60;;;;;;;;;;5111450;28;20036;-82
2023/05/22 14:18:41;;;;;;;10.85;2.75;;;;;;;;;;5095983;28;20039;-80
2023/05/22 14:21:27;;;;;;;5.00;3.10;;;;;;;;;;5111495;28;20036;-82
2023/05/22 14:24:13;;;;;;;5.97;2.60;;;;;;;;;;5111612;28;20044;-80
2023/05/22 14:26:58;;;;;;;5.13;2.53;;;;;;;;;;5111333;28;20047;-83
2023/05/22 14:29:44;;;;;;;5.25;2.90;;;;;;;;;;5110837;28;20693;-84
2023/05/22 14:32:29;;;;;;;10.18;3.78;;;;;;;;;;5112261;28;20039;-82
2023/05/22 14:35:18;;;;;;;4.43;2.50;;;;;;;;;;5112690;28;20400;-83
2023/05/22 14:38:02;;;;;;;8.57;3.95;;;;;;;;;;5112152;28;20059;-83
2023/05/22 14:40:48;;;;;;;6.13;3.85;;;;;;;;;;5103954;28;20060;-82
2023/05/22 14:43:35;;;;;;;9.90;3.75;;;;;;;;;;5112628;28;20043;-83
2023/05/22 14:46:21;;;;;;;6.93;3.08;;;;;;;;;;5096718;28;20044;-83
2023/05/22 14:49:07;;;;;;;5.63;2.60;;;;;;;;;;5112154;28;20039;-82
2023/05/22 14:51:53;;;;;;;7.95;2.65;;;;;;;;;;5096570;28;20044;-79
2023/05/22 14:54:38;;;;;;;7.30;2.65;;;;;;;;;;5111854;28;20053;-81
2023/05/22 14:57:23;;;;;;;6.43;2.30;;;;;;;;;;5111840;28;20051;-81
2023/05/22 15:00:10;;;;;;;4.90;2.45;;;;;;;;;;5103381;28;20039;-81
2023/05/22 15:02:56;;;;;;;6.80;2.72;;;;;;;;;;5116169;28;20047;-78
2023/05/22 15:05:41;;;;;;;6.68;3.53;;;;;;;;;;5115851;28;20031;-80
2023/05/22 15:08:27;;;;;;;9.27;3.25;;;;;;;;;;5115397;28;20047;-79
2023/05/22 15:11:12;;;;;;;4.75;2.90;;;;;;;;;;5115812;28;20040;-83
2023/05/22 15:13:57;;;;;;;5.57;3.58;;;;;;;;;;5100511;28;20051;-81
2023/05/22 15:16:43;;;;;;;4.00;2.65;;;;;;;;;;5116014;28;20043;-82
2023/05/22 15:19:32;;;;;;;5.03;2.63;;;;;;;;;;5115688;28;20043;-80
2023/05/22 15:22:17;;;;;;;4.00;2.60;;;;;;;;;;5115511;28;20044;-81
2023/05/22 15:25:13;;;;;;;7.78;2.50;;;;;;;;;;5115789;28;20051;-85
2023/05/22 15:28:01;;;;;;;8.77;2.92;;;;;;;;;;5116277;28;20051;-85
2023/05/22 15:30:47;;;;;;;7.80;2.90;;;;;;;;;;5115839;28;20051;-84
2023/05/22 15:33:33;;;;;;;5.28;2.65;;;;;;;;;;5101903;28;20051;-83
2023/05/22 15:36:18;;;;;;;3.78;2.55;;;;;;;;;;5115620;28;20047;-87
2023/05/22 15:39:03;;;;;;;5.57;2.88;;;;;;;;;;5115731;28;20043;-84
2023/05/22 15:41:51;;;;;;;4.53;2.50;;;;;;;;;;5115210;28;20040;-83
2023/05/22 15:44:37;;;;;;;5.18;2.80;;;;;;;;;;5115214;28;20043;-87
2023/05/22 15:47:22;;;;;;;7.18;2.70;;;;;;;;;;5114382;28;20433;-85
2023/05/22 15:50:08;;;;;;;6.88;2.75;;;;;;;;;;5114521;28;20043;-85
2023/05/22 15:52:53;;;;;;;5.55;2.42;;;;;;;;;;5114541;28;20040;-78
2023/05/22 15:55:39;;;;;;;7.30;2.95;;;;;;;;;;5099791;28;20472;-78
2023/05/22 15:58:24;;;;;;;4.10;2.63;;;;;;;;;;5114520;28;20485;-78
2023/05/22 16:01:11;;;;;;;6.53;3.03;;;;;;;;;;5099812;28;20043;-78
2023/05/22 16:03:56;;;;;;;3.83;3.03;;;;;;;;;;5114180;28;20393;-78
2023/05/22 16:06:41;;;;;;;6.65;2.83;;;;;;;;;;5114586;28;20048;-80
2023/05/22 16:09:34;;;;;;;8.27;3.05;;;;;;;;;;5114887;28;20043;-83
2023/05/22 16:12:30;;;;;;;5.88;2.88;;;;;;;;;;5100150;28;20047;-82
2023/05/22 16:15:27;;;;;;;8.73;3.10;;;;;;;;;;5099533;28;20043;-83
2023/05/22 16:18:23;;;;;;;6.55;3.00;;;;;;;;;;5106530;28;20043;-82
2023/05/22 16:21:08;;;;;;;6.88;3.28;;;;;;;;;;5114472;28;20043;-78
2023/05/22 16:23:54;;;;;;;6.45;2.80;;;;;;;;;;5112591;28;20043;-79
2023/05/22 16:26:39;;;;;;;5.82;3.05;;;;;;;;;;5110893;28;20052;-77
2023/05/22 16:29:25;;;;;;;8.10;3.05;;;;;;;;;;5112408;28;20060;-79
2023/05/22 16:32:10;;;;;;;4.15;2.60;;;;;;;;;;5112433;28;20039;-77
2023/05/22 16:34:56;;;;;;;6.40;2.97;;;;;;;;;;5111349;28;20040;-79
2023/05/22 16:37:41;;;;;;;7.97;3.20;;;;;;;;;;5112707;28;20048;-77
2023/05/22 16:40:27;;;;;;;3.72;2.78;;;;;;;;;;5112529;28;20040;-79
2023/05/22 16:43:13;;;;;;;5.32;2.95;;;;;;;;;;5112910;28;20040;-80
2023/05/22 16:45:58;;;;;;;7.38;2.80;;;;;;;;;;5112669;28;20048;-81